createdAt,value
2022-11-16T00:01:49.239Z,63.13
2022-11-16T00:04:16.640Z,71.70
2022-11-16T00:06:43.988Z,68.83
2022-11-16T00:09:24.370Z,77.53
2022-11-16T00:11:57.360Z,83.50
2022-11-16T00:14:27.737Z,75.03
2022-11-16T00:16:55.940Z,76.27
2022-11-16T00:19:24.433Z,105.13
2022-11-16T00:21:52.678Z,110.97
2022-11-16T00:24:21.811Z,83.90
2022-11-16T00:26:50.302Z,81.17
2022-11-16T00:29:20.376Z,80.43
2022-11-16T00:31:48.691Z,87.47
2022-11-16T00:34:16.436Z,87.50
2022-11-16T00:36:44.019Z,74.00
2022-11-16T00:39:13.404Z,96.27
2022-11-16T00:41:41.571Z,90.90
2022-11-16T00:44:09.975Z,91.13
2022-11-16T00:46:37.438Z,75.77
2022-11-16T00:49:05.860Z,135.80
2022-11-16T00:51:34.125Z,87.43
2022-11-16T00:54:02.643Z,80.23
2022-11-16T00:56:30.075Z,82.37
2022-11-16T00:58:57.461Z,76.67
2022-11-16T01:01:25.204Z,72.93
2022-11-16T01:03:52.850Z,62.57
2022-11-16T01:06:20.670Z,55.93
2022-11-16T01:08:48.586Z,53.73
2022-11-16T01:11:36.273Z,53.43
2022-11-16T01:14:07.057Z,70.53
2022-11-16T01:16:34.375Z,59.87
2022-11-16T01:19:01.990Z,68.10
2022-11-16T01:21:29.527Z,62.93
2022-11-16T01:23:57.602Z,69.37
2022-11-16T01:26:25.420Z,70.43
2022-11-16T01:28:53.365Z,73.60
2022-11-16T01:31:21.010Z,98.80
2022-11-16T01:33:48.419Z,89.37
2022-11-16T01:36:16.207Z,71.57
2022-11-16T01:38:45.992Z,63.70
2022-11-16T01:41:19.264Z,72.37
2022-11-16T01:43:53.107Z,74.73
2022-11-16T01:46:20.815Z,74.40
2022-11-16T01:48:52.245Z,65.27
2022-11-16T01:51:19.889Z,67.07
2022-11-16T01:53:47.265Z,68.53
2022-11-16T01:56:14.689Z,66.70
2022-11-16T01:58:42.204Z,70.00
2022-11-16T02:01:09.566Z,63.53
2022-11-16T02:03:38.998Z,76.23
2022-11-16T02:06:19.164Z,70.13
2022-11-16T02:09:23.175Z,78.67
2022-11-16T02:12:09.568Z,108.47
2022-11-16T02:14:55.361Z,100.47
2022-11-16T02:18:00.435Z,93.77
2022-11-16T02:20:41.678Z,92.00
2022-11-16T02:23:21.004Z,91.33
2022-11-16T02:26:00.079Z,83.50
2022-11-16T02:28:46.875Z,81.63
2022-11-16T02:31:19.995Z,74.53
2022-11-16T02:33:50.579Z,73.77
2022-11-16T02:36:22.622Z,84.40
2022-11-16T02:39:01.464Z,94.90
2022-11-16T02:41:34.013Z,99.33
2022-11-16T02:44:06.803Z,99.57
2022-11-16T02:46:38.252Z,98.73
2022-11-16T02:49:11.513Z,91.47
2022-11-16T02:51:40.490Z,84.13
2022-11-16T02:54:21.919Z,89.77
2022-11-16T02:56:55.348Z,84.17
2022-11-16T02:59:26.354Z,82.53
2022-11-16T03:02:04.085Z,86.53
2022-11-16T03:04:45.869Z,106.10
2022-11-16T03:07:17.073Z,116.07
2022-11-16T03:09:46.178Z,106.30
2022-11-16T03:12:18.751Z,93.03
2022-11-16T03:14:52.559Z,96.23
2022-11-16T03:17:28.427Z,91.27
2022-11-16T03:20:04.994Z,125.80
2022-11-16T03:22:35.536Z,125.97
2022-11-16T03:25:04.077Z,125.10
2022-11-16T03:28:02.276Z,116.87
2022-11-16T03:30:34.495Z,106.23
2022-11-16T03:33:35.207Z,108.70
2022-11-16T03:36:11.868Z,97.73
2022-11-16T03:38:41.559Z,115.77
2022-11-16T03:41:10.871Z,101.40
2022-11-16T03:43:39.568Z,102.40
2022-11-16T03:46:07.815Z,90.97
2022-11-16T03:48:40.712Z,87.70
2022-11-16T03:51:13.176Z,88.47
2022-11-16T03:53:40.612Z,81.70
2022-11-16T03:56:08.092Z,82.63
2022-11-16T03:58:35.659Z,76.87
2022-11-16T04:01:03.946Z,81.33
2022-11-16T04:03:31.382Z,82.30
2022-11-16T04:06:17.514Z,84.17
2022-11-16T04:09:03.386Z,103.00
2022-11-16T04:11:49.332Z,102.37
2022-11-16T04:14:40.593Z,93.07
2022-11-16T04:17:33.733Z,85.13
2022-11-16T04:20:23.707Z,86.03
2022-11-16T04:23:32.422Z,87.57
2022-11-16T04:26:00.417Z,83.13
2022-11-16T04:28:35.075Z,85.57
2022-11-16T04:31:23.369Z,84.83
2022-11-16T04:34:11.213Z,88.60
2022-11-16T04:36:57.103Z,82.17
2022-11-16T04:39:24.865Z,72.30
2022-11-16T04:42:10.669Z,58.60
2022-11-16T04:45:01.593Z,55.40
2022-11-16T04:47:28.811Z,53.13
2022-11-16T04:49:56.165Z,55.27
2022-11-16T04:52:23.519Z,51.43
2022-11-16T04:54:50.763Z,53.70
2022-11-16T04:57:18.044Z,56.93
2022-11-16T04:59:45.479Z,53.57
2022-11-16T05:02:13.478Z,52.90
2022-11-16T05:04:42.937Z,57.93
2022-11-16T05:07:13.736Z,74.07
2022-11-16T05:09:49.266Z,65.83
2022-11-16T05:12:20.144Z,71.90
2022-11-16T05:14:47.424Z,67.83
2022-11-16T05:17:16.011Z,94.10
2022-11-16T05:20:02.178Z,90.10
2022-11-16T05:22:30.110Z,104.73
2022-11-16T05:24:57.573Z,102.67
2022-11-16T05:27:26.861Z,98.73
2022-11-16T05:29:55.321Z,107.53
2022-11-16T05:32:23.840Z,132.63
2022-11-16T05:34:51.441Z,96.27
2022-11-16T05:37:21.355Z,111.67
2022-11-16T05:39:48.824Z,106.13
2022-11-16T05:42:16.686Z,143.33
2022-11-16T05:44:44.169Z,108.87
2022-11-16T05:47:11.479Z,110.93
2022-11-16T05:49:38.693Z,126.17
2022-11-16T05:52:06.000Z,123.27
2022-11-16T05:54:33.326Z,124.63
2022-11-16T05:57:00.839Z,107.17
2022-11-16T05:59:30.203Z,121.67
2022-11-16T06:01:58.367Z,107.83
2022-11-16T06:04:25.740Z,120.10
2022-11-16T06:06:53.297Z,126.97
2022-11-16T06:09:21.130Z,132.43
2022-11-16T06:11:48.493Z,130.73
2022-11-16T06:14:15.742Z,132.67
2022-11-16T06:16:43.031Z,120.97
2022-11-16T06:19:10.305Z,133.20
2022-11-16T06:21:37.613Z,127.63
2022-11-16T06:24:09.331Z,140.03
2022-11-16T06:26:37.265Z,125.80
2022-11-16T06:29:04.828Z,110.83
2022-11-16T06:31:32.573Z,118.97
2022-11-16T06:34:00.015Z,137.60
2022-11-16T06:36:27.577Z,118.70
2022-11-16T06:38:54.845Z,119.20
2022-11-16T06:41:22.349Z,117.83
2022-11-16T06:43:49.663Z,119.27
2022-11-16T06:46:16.943Z,109.13
2022-11-16T06:48:44.344Z,109.17
2022-11-16T06:51:11.857Z,110.87
2022-11-16T06:53:39.689Z,112.03
2022-11-16T06:56:07.828Z,104.90
2022-11-16T06:58:35.377Z,101.27
2022-11-16T07:01:11.319Z,96.10
2022-11-16T07:03:38.828Z,91.10
2022-11-16T07:06:08.559Z,92.07
2022-11-16T07:08:36.240Z,90.07
2022-11-16T07:11:08.479Z,88.87
2022-11-16T07:13:37.410Z,79.90
2022-11-16T07:16:06.730Z,87.70
2022-11-16T07:18:39.140Z,84.27
2022-11-16T07:21:14.894Z,85.60
2022-11-16T07:23:42.576Z,87.97
2022-11-16T07:26:10.877Z,89.90
2022-11-16T07:28:41.012Z,89.53
2022-11-16T07:31:14.162Z,87.50
2022-11-16T07:33:41.861Z,85.90
2022-11-16T07:36:12.449Z,93.50
2022-11-16T07:38:40.236Z,92.47
2022-11-16T07:41:10.266Z,233.07
2022-11-16T07:43:38.545Z,95.23
2022-11-16T07:49:01.481Z,84.20
2022-11-16T07:51:28.785Z,92.90
2022-11-16T07:53:56.290Z,88.27
2022-11-16T07:56:24.138Z,91.73
2022-11-16T07:58:51.666Z,88.67
2022-11-16T08:01:19.506Z,91.47
2022-11-16T08:03:47.172Z,90.17
2022-11-16T08:06:25.818Z,98.60
2022-11-16T08:08:58.038Z,105.30
2022-11-16T08:11:26.432Z,90.33
2022-11-16T08:13:54.109Z,123.17
2022-11-16T08:16:22.846Z,135.33
2022-11-16T08:18:50.741Z,124.07
2022-11-16T08:21:19.361Z,107.53
2022-11-16T08:23:47.115Z,88.40
2022-11-16T08:26:16.928Z,89.60
2022-11-16T08:28:46.131Z,96.97
2022-11-16T08:31:19.677Z,93.23
2022-11-16T08:33:48.288Z,87.70
2022-11-16T08:36:18.902Z,94.93
2022-11-16T08:38:48.933Z,104.03
2022-11-16T08:41:17.578Z,96.00
2022-11-16T08:43:47.405Z,94.00
2022-11-16T08:46:15.734Z,103.33
2022-11-16T08:48:43.081Z,121.80
2022-11-16T08:51:18.101Z,99.37
2022-11-16T08:53:48.565Z,92.47
2022-11-16T08:56:18.219Z,95.73
2022-11-16T08:58:47.583Z,93.83
2022-11-16T09:01:20.563Z,94.20
2022-11-16T09:03:48.167Z,88.13
2022-11-16T09:06:16.172Z,83.83
2022-11-16T09:08:44.785Z,97.53
2022-11-16T09:11:16.486Z,87.57
2022-11-16T09:13:45.214Z,92.40
2022-11-16T09:16:16.122Z,89.03
2022-11-16T09:18:47.423Z,87.50
2022-11-16T09:21:22.060Z,87.33
2022-11-16T09:23:50.309Z,86.93
2022-11-16T09:26:21.238Z,91.90
2022-11-16T09:28:56.273Z,80.47
2022-11-16T09:31:24.103Z,84.70
2022-11-16T09:33:52.096Z,95.20
2022-11-16T09:36:20.850Z,88.60
2022-11-16T09:39:23.805Z,122.67
2022-11-16T09:42:20.473Z,96.97
2022-11-16T09:45:06.570Z,91.80
2022-11-16T09:47:46.353Z,85.37
2022-11-16T09:50:28.231Z,90.83
2022-11-16T09:53:01.127Z,92.30
2022-11-16T09:55:42.630Z,85.50
2022-11-16T09:58:30.508Z,92.90
2022-11-16T10:01:24.370Z,104.37
2022-11-16T10:03:59.257Z,123.50
2022-11-16T10:07:06.807Z,132.80
2022-11-16T10:09:36.555Z,136.43
2022-11-16T10:12:16.908Z,117.40
2022-11-16T10:15:04.930Z,111.63
2022-11-16T10:17:32.131Z,124.53
2022-11-16T10:20:36.561Z,91.07
2022-11-16T10:23:27.861Z,93.50
2022-11-16T10:26:04.253Z,91.33
2022-11-16T10:28:40.505Z,83.27
2022-11-16T10:31:17.117Z,77.37
2022-11-16T10:33:48.169Z,82.40
2022-11-16T10:36:16.796Z,81.30
2022-11-16T10:38:45.329Z,88.97
2022-11-16T10:41:22.727Z,94.37
2022-11-16T10:43:50.291Z,104.10
2022-11-16T10:47:11.385Z,109.70
2022-11-16T10:49:59.306Z,82.60
2022-11-16T10:52:26.852Z,86.23
2022-11-16T10:54:54.277Z,90.03
2022-11-16T10:57:24.023Z,90.47
2022-11-16T10:59:56.164Z,89.67
2022-11-16T11:02:33.854Z,87.13
2022-11-16T11:05:05.590Z,97.30
2022-11-16T11:07:40.325Z,101.70
2022-11-16T11:10:29.274Z,89.83
2022-11-16T11:13:27.070Z,85.80
2022-11-16T11:16:16.406Z,69.97
2022-11-16T11:18:44.031Z,74.97
2022-11-16T11:21:25.937Z,71.20
2022-11-16T11:24:06.184Z,74.20
2022-11-16T11:26:49.943Z,75.10
2022-11-16T11:29:25.667Z,79.03
2022-11-16T11:31:58.313Z,69.40
2022-11-16T11:34:30.946Z,70.77
2022-11-16T11:37:02.263Z,62.13
2022-11-16T11:39:38.734Z,59.97
2022-11-16T11:42:15.068Z,63.33
2022-11-16T11:44:55.067Z,67.13
2022-11-16T11:48:00.581Z,68.70
2022-11-16T11:50:41.643Z,54.70
2022-11-16T11:53:30.527Z,53.70
2022-11-16T11:55:59.690Z,42.40
2022-11-16T11:58:31.855Z,55.63
2022-11-16T12:01:25.639Z,58.70
2022-11-16T12:04:32.107Z,44.60
2022-11-16T12:07:41.978Z,40.20
2022-11-16T12:10:24.406Z,38.47
2022-11-16T12:13:16.324Z,32.23
2022-11-16T12:15:49.845Z,34.40
2022-11-16T12:18:43.368Z,36.63
2022-11-16T12:21:37.522Z,32.10
2022-11-16T12:24:15.041Z,31.90
2022-11-16T12:27:13.650Z,30.90
2022-11-16T12:30:07.772Z,34.37
2022-11-16T12:32:37.940Z,35.70
2022-11-16T12:35:39.071Z,30.10
2022-11-16T12:38:41.131Z,37.50
2022-11-16T12:41:31.859Z,38.30
2022-11-16T12:44:08.409Z,32.20
2022-11-16T12:46:44.026Z,307.00
2022-11-16T12:49:14.232Z,35.93
2022-11-16T12:51:54.294Z,31.93
2022-11-16T12:54:27.733Z,30.27
2022-11-16T12:57:01.248Z,35.67
2022-11-16T12:59:54.206Z,37.57
2022-11-16T13:02:36.388Z,35.17
2022-11-16T13:05:44.262Z,33.47
2022-11-16T13:08:49.849Z,40.03
2022-11-16T13:11:34.246Z,55.57
2022-11-16T13:14:12.070Z,37.30
2022-11-16T13:16:39.339Z,41.17
2022-11-16T13:19:10.552Z,33.73
2022-11-16T13:21:46.746Z,37.63
2022-11-16T13:24:13.946Z,46.63
2022-11-16T13:27:07.477Z,39.97
2022-11-16T13:29:40.964Z,30.17
2022-11-16T13:32:18.893Z,31.90
2022-11-16T13:34:46.940Z,29.63
2022-11-16T13:37:38.342Z,29.77
2022-11-16T13:40:05.754Z,27.57
2022-11-16T13:42:45.597Z,30.73
2022-11-16T13:45:22.222Z,27.83
2022-11-16T13:47:55.649Z,31.60
2022-11-16T13:50:37.763Z,31.50
2022-11-16T13:56:07.503Z,32.07
2022-11-16T13:58:37.765Z,29.73
2022-11-16T14:01:10.993Z,27.03
2022-11-16T14:03:40.377Z,28.83
2022-11-16T14:06:30.520Z,27.57
2022-11-16T14:08:59.462Z,25.80
2022-11-16T14:11:40.410Z,25.63
2022-11-16T14:14:12.959Z,28.13
2022-11-16T14:16:51.412Z,27.20
2022-11-16T14:19:55.243Z,28.33
2022-11-16T14:22:40.805Z,31.03
2022-11-16T14:25:32.215Z,30.30
2022-11-16T14:28:20.254Z,29.27
2022-11-16T14:31:16.107Z,27.97
2022-11-16T14:33:43.731Z,37.40
2022-11-16T14:36:11.730Z,24.23
2022-11-16T14:38:41.959Z,25.60
2022-11-16T14:41:27.955Z,26.53
2022-11-16T14:43:58.804Z,27.77
2022-11-16T14:46:30.122Z,31.57
2022-11-16T14:48:59.540Z,31.30
2022-11-16T14:51:37.195Z,32.50
2022-11-16T14:54:25.453Z,36.23
2022-11-16T14:57:05.279Z,30.93
2022-11-16T14:59:32.995Z,37.70
2022-11-16T15:02:16.371Z,36.37
2022-11-16T15:04:44.052Z,42.10
2022-11-16T15:07:13.190Z,31.03
2022-11-16T15:09:46.551Z,32.40
2022-11-16T15:12:37.905Z,46.70
2022-11-16T15:15:13.593Z,37.53
2022-11-16T15:17:46.319Z,32.77
2022-11-16T15:20:22.872Z,33.73
2022-11-16T15:22:55.647Z,35.93
2022-11-16T15:25:28.918Z,43.73
2022-11-16T15:27:58.465Z,36.33
2022-11-16T15:30:27.230Z,31.23
2022-11-16T15:32:55.206Z,23.07
2022-11-16T15:35:25.268Z,26.90
2022-11-16T15:38:11.938Z,27.33
2022-11-16T15:40:39.238Z,29.00
2022-11-16T15:43:07.559Z,31.03
2022-11-16T15:45:36.832Z,29.53
2022-11-16T15:48:05.620Z,26.67
2022-11-16T15:50:33.091Z,30.87
2022-11-16T15:53:00.849Z,23.73
2022-11-16T15:55:38.831Z,27.23
2022-11-16T15:58:22.617Z,27.03
2022-11-16T16:00:50.023Z,35.37
2022-11-16T16:03:24.589Z,21.27
2022-11-16T16:05:52.334Z,24.63
2022-11-16T16:08:38.077Z,21.00
2022-11-16T16:11:11.056Z,21.00
2022-11-16T16:13:57.886Z,26.83
2022-11-16T16:16:27.732Z,20.07
2022-11-16T16:18:58.606Z,25.83
2022-11-16T16:21:28.878Z,24.43
2022-11-16T16:23:57.056Z,24.17
2022-11-16T16:26:24.458Z,21.50
2022-11-16T16:28:52.118Z,26.07
2022-11-16T16:31:19.901Z,28.03
2022-11-16T16:33:47.431Z,21.97
2022-11-16T16:36:15.752Z,24.77
2022-11-16T16:38:43.022Z,24.83
2022-11-16T16:41:23.712Z,23.80
2022-11-16T16:43:51.460Z,22.37
2022-11-16T16:46:18.827Z,35.53
2022-11-16T16:48:46.122Z,24.87
2022-11-16T16:51:13.487Z,76.33
2022-11-16T16:53:40.787Z,29.80
2022-11-16T16:56:15.517Z,29.57
2022-11-16T16:58:42.948Z,25.77
2022-11-16T17:01:11.868Z,21.47
2022-11-16T17:03:39.230Z,23.50
2022-11-16T17:06:06.711Z,22.57
2022-11-16T17:08:35.566Z,22.57
2022-11-16T17:11:03.247Z,21.10
2022-11-16T17:13:30.787Z,18.67
2022-11-16T17:15:58.029Z,25.77
2022-11-16T17:18:26.388Z,23.07
2022-11-16T17:20:53.639Z,28.50
2022-11-16T17:23:21.022Z,23.87
2022-11-16T17:25:48.369Z,23.07
2022-11-16T17:28:15.587Z,23.90
2022-11-16T17:30:42.907Z,28.03
2022-11-16T17:33:10.249Z,22.53
2022-11-16T17:35:37.584Z,26.63
2022-11-16T17:38:05.107Z,20.83
2022-11-16T17:40:32.470Z,24.53
2022-11-16T17:43:01.534Z,20.10
2022-11-16T17:45:28.948Z,17.60
2022-11-16T17:47:58.547Z,17.83
2022-11-16T17:50:26.131Z,17.83
2022-11-16T17:52:53.412Z,18.80
2022-11-16T17:55:20.622Z,64.03
2022-11-16T17:57:49.278Z,27.50
2022-11-16T18:00:17.163Z,34.40
2022-11-16T18:02:44.430Z,21.87
2022-11-16T18:05:11.658Z,32.83
2022-11-16T18:07:40.566Z,27.80
2022-11-16T18:10:08.848Z,19.57
2022-11-16T18:12:36.162Z,30.17
2022-11-16T18:17:50.960Z,25.97
2022-11-16T18:20:18.324Z,20.13
2022-11-16T18:22:45.708Z,59.00
2022-11-16T18:25:12.941Z,39.83
2022-11-16T18:27:40.301Z,57.17
2022-11-16T18:30:08.252Z,35.13
2022-11-16T18:32:36.668Z,34.53
2022-11-16T18:35:10.226Z,27.47
2022-11-16T18:37:37.657Z,15.63
2022-11-16T18:40:05.570Z,14.80
2022-11-16T18:42:32.960Z,15.07
2022-11-16T18:45:00.485Z,15.80
2022-11-16T18:47:27.955Z,13.33
2022-11-16T18:49:55.521Z,11.43
2022-11-16T18:52:22.912Z,13.53
2022-11-16T18:54:50.613Z,13.60
2022-11-16T18:57:17.976Z,13.43
2022-11-16T18:59:45.206Z,13.63
2022-11-16T19:02:12.969Z,15.53
2022-11-16T19:04:40.877Z,13.43
2022-11-16T19:07:11.130Z,15.00
2022-11-16T19:09:38.689Z,14.13
2022-11-16T19:12:06.584Z,12.40
2022-11-16T19:14:33.979Z,12.47
2022-11-16T19:17:01.409Z,10.70
2022-11-16T19:19:30.317Z,9.80
2022-11-16T19:21:57.969Z,14.67
2022-11-16T19:24:25.299Z,10.23
2022-11-16T19:26:52.757Z,10.23
2022-11-16T19:29:20.135Z,10.60
2022-11-16T19:31:47.463Z,13.20
2022-11-16T19:34:15.316Z,15.83
2022-11-16T19:36:42.696Z,16.13
2022-11-16T19:39:09.997Z,14.47
2022-11-16T19:41:37.242Z,10.83
2022-11-16T19:44:04.552Z,13.10
2022-11-16T19:46:33.475Z,13.50
2022-11-16T19:49:01.863Z,17.23
2022-11-16T19:51:31.409Z,17.37
2022-11-16T19:54:02.836Z,16.23
2022-11-16T19:56:31.175Z,15.60
2022-11-16T19:58:59.282Z,14.07
2022-11-16T20:01:29.669Z,17.27
2022-11-16T20:03:59.250Z,17.10
2022-11-16T20:06:29.500Z,14.37
2022-11-16T20:09:01.143Z,18.83
2022-11-16T20:11:36.040Z,18.83
2022-11-16T20:14:05.412Z,15.00
2022-11-16T20:16:38.992Z,16.17
2022-11-16T20:19:08.489Z,16.20
2022-11-16T20:21:41.727Z,14.77
2022-11-16T20:24:13.203Z,15.00
2022-11-16T20:26:48.642Z,14.77
2022-11-16T20:29:18.168Z,17.53
2022-11-16T20:31:46.495Z,10.33
2022-11-16T20:34:16.050Z,9.87
2022-11-16T20:36:46.229Z,9.93
2022-11-16T20:39:19.100Z,7.50
2022-11-16T20:41:47.108Z,6.57
2022-11-16T20:44:22.360Z,8.23
2022-11-16T20:46:52.535Z,8.20
2022-11-16T20:49:19.968Z,9.80
2022-11-16T20:51:48.635Z,6.30
2022-11-16T20:54:16.094Z,7.67
2022-11-16T20:56:49.828Z,7.67
2022-11-16T20:59:17.913Z,8.83
2022-11-16T21:01:50.709Z,7.07
2022-11-16T21:04:18.778Z,7.47
2022-11-16T21:06:46.057Z,6.97
2022-11-16T21:09:15.960Z,133.63
2022-11-16T21:12:01.969Z,12.63
2022-11-16T21:14:29.530Z,14.87
2022-11-16T21:16:56.805Z,11.00
2022-11-16T21:19:24.725Z,7.33
2022-11-16T21:21:51.936Z,9.67
2022-11-16T21:24:19.368Z,13.10
2022-11-16T21:26:46.775Z,14.13
2022-11-16T21:29:14.669Z,11.87
2022-11-16T21:31:41.865Z,12.60
2022-11-16T21:34:09.316Z,12.43
2022-11-16T21:36:36.754Z,15.73
2022-11-16T21:39:04.091Z,12.40
2022-11-16T21:41:32.040Z,12.90
2022-11-16T21:44:00.432Z,10.67
2022-11-16T21:46:28.152Z,14.33
2022-11-16T21:48:56.953Z,16.27
2022-11-16T21:51:27.327Z,13.23
2022-11-16T21:53:55.036Z,10.30
2022-11-16T21:56:24.401Z,12.83
2022-11-16T21:58:53.265Z,13.33
2022-11-16T22:01:21.559Z,12.23
2022-11-16T22:04:09.386Z,10.07
2022-11-16T22:06:55.099Z,10.60
2022-11-16T22:09:22.510Z,9.53
2022-11-16T22:14:34.405Z,14.47
2022-11-16T22:17:02.006Z,10.80
2022-11-16T22:19:31.056Z,11.80
2022-11-16T22:22:00.335Z,8.53
2022-11-16T22:24:27.700Z,9.13
2022-11-16T22:26:55.152Z,18.27
2022-11-16T22:29:23.369Z,12.07
2022-11-16T22:31:50.766Z,8.97
2022-11-16T22:34:18.150Z,8.63
2022-11-16T22:36:45.453Z,7.53
2022-11-16T22:39:13.189Z,7.63
2022-11-16T22:41:40.615Z,9.67
2022-11-16T22:44:07.964Z,6.67
2022-11-16T22:46:35.803Z,19.20
2022-11-16T22:49:03.154Z,9.93
2022-11-16T22:51:31.249Z,10.17
2022-11-16T22:54:01.238Z,8.17
2022-11-16T22:56:30.675Z,8.67
2022-11-16T22:58:59.258Z,6.90
2022-11-16T23:01:26.645Z,9.67
2022-11-16T23:03:54.146Z,9.17
2022-11-16T23:06:21.487Z,8.43
2022-11-16T23:08:49.221Z,7.97
2022-11-16T23:11:40.950Z,9.33
2022-11-16T23:14:33.414Z,9.47
2022-11-16T23:17:01.751Z,12.50
2022-11-16T23:19:47.858Z,10.73
2022-11-16T23:22:37.553Z,9.77
2022-11-16T23:25:25.442Z,10.10
2022-11-16T23:28:09.495Z,10.63
2022-11-16T23:30:37.027Z,10.97
2022-11-16T23:33:04.806Z,11.67
2022-11-16T23:35:32.378Z,18.10
2022-11-16T23:38:02.034Z,21.27
2022-11-16T23:40:32.484Z,14.93
2022-11-16T23:43:18.427Z,20.80
2022-11-16T23:45:46.370Z,14.00
2022-11-16T23:48:15.753Z,16.97
2022-11-16T23:50:44.512Z,13.43
2022-11-16T23:53:12.816Z,12.90
2022-11-16T23:55:40.918Z,11.73
2022-11-16T23:58:13.495Z,9.63
